sensor_id;sensor_type;location;lat;lon;timestamp;temperature;humidity
13721;DHT22;6932;51.438;5.470;2023-03-17T00:00:41;16.00;62.80
13721;DHT22;6932;51.438;5.470;2023-03-17T00:05:41;16.00;62.90
13721;DHT22;6932;51.438;5.470;2023-03-17T00:08:17;16.00;62.90
13721;DHT22;6932;51.438;5.470;2023-03-17T00:10:46;16.00;62.90
13721;DHT22;6932;51.438;5.470;2023-03-17T00:16:52;16.00;63.00
13721;DHT22;6932;51.438;5.470;2023-03-17T00:19:28;16.00;62.90
13721;DHT22;6932;51.438;5.470;2023-03-17T00:21:57;16.00;63.10
13721;DHT22;6932;51.438;5.470;2023-03-17T00:24:23;16.00;63.10
13721;DHT22;6932;51.438;5.470;2023-03-17T00:26:49;16.00;63.10
13721;DHT22;6932;51.438;5.470;2023-03-17T00:29:14;15.90;63.10
13721;DHT22;6932;51.438;5.470;2023-03-17T00:31:41;15.90;63.10
13721;DHT22;6932;51.438;5.470;2023-03-17T00:34:15;15.90;63.10
13721;DHT22;6932;51.438;5.470;2023-03-17T00:36:45;15.90;63.10
13721;DHT22;6932;51.438;5.470;2023-03-17T00:39:14;15.90;63.10
13721;DHT22;6932;51.438;5.470;2023-03-17T00:41:41;15.90;63.20
13721;DHT22;6932;51.438;5.470;2023-03-17T00:44:07;15.90;63.30
13721;DHT22;6932;51.438;5.470;2023-03-17T00:46:35;15.90;63.30
13721;DHT22;6932;51.438;5.470;2023-03-17T00:49:23;15.90;63.30
13721;DHT22;6932;51.438;5.470;2023-03-17T00:51:50;15.90;63.30
13721;DHT22;6932;51.438;5.470;2023-03-17T00:54:17;15.90;63.30
13721;DHT22;6932;51.438;5.470;2023-03-17T00:56:45;15.80;63.30
13721;DHT22;6932;51.438;5.470;2023-03-17T00:59:37;15.80;63.30
13721;DHT22;6932;51.438;5.470;2023-03-17T01:02:10;15.80;63.30
13721;DHT22;6932;51.438;5.470;2023-03-17T01:04:36;15.80;63.40
13721;DHT22;6932;51.438;5.470;2023-03-17T01:07:02;15.80;63.40
13721;DHT22;6932;51.438;5.470;2023-03-17T01:09:29;15.80;63.40
13721;DHT22;6932;51.438;5.470;2023-03-17T01:11:55;15.80;63.40
13721;DHT22;6932;51.438;5.470;2023-03-17T01:14:21;15.80;63.50
13721;DHT22;6932;51.438;5.470;2023-03-17T01:16:47;15.80;63.50
13721;DHT22;6932;51.438;5.470;2023-03-17T01:19:13;15.80;63.50
13721;DHT22;6932;51.438;5.470;2023-03-17T01:21:39;15.70;63.40
13721;DHT22;6932;51.438;5.470;2023-03-17T01:24:06;15.70;64.10
13721;DHT22;6932;51.438;5.470;2023-03-17T01:26:32;15.70;63.40
13721;DHT22;6932;51.438;5.470;2023-03-17T01:28:58;15.70;63.40
13721;DHT22;6932;51.438;5.470;2023-03-17T01:31:24;15.70;63.40
13721;DHT22;6932;51.438;5.470;2023-03-17T01:33:50;15.70;63.50
13721;DHT22;6932;51.438;5.470;2023-03-17T01:36:17;15.70;63.50
13721;DHT22;6932;51.438;5.470;2023-03-17T01:38:43;15.70;63.50
13721;DHT22;6932;51.438;5.470;2023-03-17T01:41:12;15.70;63.50
13721;DHT22;6932;51.438;5.470;2023-03-17T01:43:38;15.70;63.50
13721;DHT22;6932;51.438;5.470;2023-03-17T01:49:33;15.60;63.50
13721;DHT22;6932;51.438;5.470;2023-03-17T01:52:16;15.60;63.50
13721;DHT22;6932;51.438;5.470;2023-03-17T01:55:05;15.60;63.50
13721;DHT22;6932;51.438;5.470;2023-03-17T01:57:37;15.50;63.50
13721;DHT22;6932;51.438;5.470;2023-03-17T02:00:11;15.60;63.60
13721;DHT22;6932;51.438;5.470;2023-03-17T02:02:42;15.50;63.60
13721;DHT22;6932;51.438;5.470;2023-03-17T02:05:11;15.50;63.60
13721;DHT22;6932;51.438;5.470;2023-03-17T02:07:40;15.50;63.60
13721;DHT22;6932;51.438;5.470;2023-03-17T02:10:06;15.50;63.60
13721;DHT22;6932;51.438;5.470;2023-03-17T02:12:34;15.50;63.70
13721;DHT22;6932;51.438;5.470;2023-03-17T02:15:00;15.40;63.60
13721;DHT22;6932;51.438;5.470;2023-03-17T02:17:28;15.40;63.70
13721;DHT22;6932;51.438;5.470;2023-03-17T02:19:54;15.40;63.70
13721;DHT22;6932;51.438;5.470;2023-03-17T02:22:20;15.40;63.70
13721;DHT22;6932;51.438;5.470;2023-03-17T02:27:38;15.40;63.80
13721;DHT22;6932;51.438;5.470;2023-03-17T02:30:10;15.30;63.70
13721;DHT22;6932;51.438;5.470;2023-03-17T02:32:38;15.40;63.70
13721;DHT22;6932;51.438;5.470;2023-03-17T02:35:06;15.30;63.70
13721;DHT22;6932;51.438;5.470;2023-03-17T02:37:33;15.30;63.70
13721;DHT22;6932;51.438;5.470;2023-03-17T02:40:00;15.30;63.60
13721;DHT22;6932;51.438;5.470;2023-03-17T02:42:27;15.30;63.70
13721;DHT22;6932;51.438;5.470;2023-03-17T02:44:53;15.30;63.60
13721;DHT22;6932;51.438;5.470;2023-03-17T02:47:19;15.30;63.60
13721;DHT22;6932;51.438;5.470;2023-03-17T02:49:46;15.30;63.60
13721;DHT22;6932;51.438;5.470;2023-03-17T02:52:13;15.30;63.60
13721;DHT22;6932;51.438;5.470;2023-03-17T02:54:39;15.30;63.60
13721;DHT22;6932;51.438;5.470;2023-03-17T02:57:05;15.30;63.60
13721;DHT22;6932;51.438;5.470;2023-03-17T02:59:33;15.30;63.60
13721;DHT22;6932;51.438;5.470;2023-03-17T03:01:59;15.30;63.60
13721;DHT22;6932;51.438;5.470;2023-03-17T03:04:26;15.30;63.60
13721;DHT22;6932;51.438;5.470;2023-03-17T03:06:52;15.30;63.50
13721;DHT22;6932;51.438;5.470;2023-03-17T03:09:19;15.30;63.50
13721;DHT22;6932;51.438;5.470;2023-03-17T03:11:45;15.30;63.50
13721;DHT22;6932;51.438;5.470;2023-03-17T03:14:12;15.30;63.50
13721;DHT22;6932;51.438;5.470;2023-03-17T03:16:38;15.30;63.40
13721;DHT22;6932;51.438;5.470;2023-03-17T03:19:05;15.30;63.50
13721;DHT22;6932;51.438;5.470;2023-03-17T03:21:32;15.30;63.40
13721;DHT22;6932;51.438;5.470;2023-03-17T03:23:57;15.30;63.40
13721;DHT22;6932;51.438;5.470;2023-03-17T03:26:23;15.30;63.40
13721;DHT22;6932;51.438;5.470;2023-03-17T03:28:49;15.30;63.30
13721;DHT22;6932;51.438;5.470;2023-03-17T03:31:15;15.30;63.30
13721;DHT22;6932;51.438;5.470;2023-03-17T03:33:41;15.30;63.30
13721;DHT22;6932;51.438;5.470;2023-03-17T03:36:08;15.30;63.30
13721;DHT22;6932;51.438;5.470;2023-03-17T03:38:34;15.30;63.30
13721;DHT22;6932;51.438;5.470;2023-03-17T03:41:00;15.30;63.30
13721;DHT22;6932;51.438;5.470;2023-03-17T03:43:26;15.30;63.30
13721;DHT22;6932;51.438;5.470;2023-03-17T03:45:52;15.30;63.30
13721;DHT22;6932;51.438;5.470;2023-03-17T03:48:19;15.30;63.30
13721;DHT22;6932;51.438;5.470;2023-03-17T03:50:45;15.30;63.30
13721;DHT22;6932;51.438;5.470;2023-03-17T03:53:12;15.30;63.30
13721;DHT22;6932;51.438;5.470;2023-03-17T03:55:38;15.30;63.30
13721;DHT22;6932;51.438;5.470;2023-03-17T03:58:04;15.30;63.30
13721;DHT22;6932;51.438;5.470;2023-03-17T04:00:31;15.30;63.30
13721;DHT22;6932;51.438;5.470;2023-03-17T04:02:58;15.30;63.40
13721;DHT22;6932;51.438;5.470;2023-03-17T04:05:24;15.30;63.40
13721;DHT22;6932;51.438;5.470;2023-03-17T04:07:50;15.30;63.40
13721;DHT22;6932;51.438;5.470;2023-03-17T04:10:16;15.30;63.50
13721;DHT22;6932;51.438;5.470;2023-03-17T04:12:42;15.20;63.40
13721;DHT22;6932;51.438;5.470;2023-03-17T04:15:13;15.20;63.50
13721;DHT22;6932;51.438;5.470;2023-03-17T04:17:40;15.20;63.50
13721;DHT22;6932;51.438;5.470;2023-03-17T04:20:07;15.20;63.50
13721;DHT22;6932;51.438;5.470;2023-03-17T04:22:33;15.20;63.50
13721;DHT22;6932;51.438;5.470;2023-03-17T04:24:59;15.20;63.60
13721;DHT22;6932;51.438;5.470;2023-03-17T04:27:25;15.20;63.60
13721;DHT22;6932;51.438;5.470;2023-03-17T04:29:51;15.20;63.60
13721;DHT22;6932;51.438;5.470;2023-03-17T04:32:17;15.20;63.60
13721;DHT22;6932;51.438;5.470;2023-03-17T04:34:43;15.20;63.70
13721;DHT22;6932;51.438;5.470;2023-03-17T04:37:10;15.20;63.70
13721;DHT22;6932;51.438;5.470;2023-03-17T04:39:36;15.20;63.80
13721;DHT22;6932;51.438;5.470;2023-03-17T04:42:04;15.20;63.80
13721;DHT22;6932;51.438;5.470;2023-03-17T04:44:30;15.20;63.80
13721;DHT22;6932;51.438;5.470;2023-03-17T04:46:56;15.20;63.80
13721;DHT22;6932;51.438;5.470;2023-03-17T04:49:22;15.20;63.90
13721;DHT22;6932;51.438;5.470;2023-03-17T04:51:48;15.10;63.80
13721;DHT22;6932;51.438;5.470;2023-03-17T04:54:14;15.10;63.80
13721;DHT22;6932;51.438;5.470;2023-03-17T04:56:41;15.10;63.80
13721;DHT22;6932;51.438;5.470;2023-03-17T04:59:07;15.10;63.80
13721;DHT22;6932;51.438;5.470;2023-03-17T05:01:33;15.10;63.80
13721;DHT22;6932;51.438;5.470;2023-03-17T05:03:59;15.10;63.90
13721;DHT22;6932;51.438;5.470;2023-03-17T05:06:26;15.10;63.90
13721;DHT22;6932;51.438;5.470;2023-03-17T05:08:51;15.10;63.90
13721;DHT22;6932;51.438;5.470;2023-03-17T05:11:17;15.10;63.90
13721;DHT22;6932;51.438;5.470;2023-03-17T05:13:43;15.10;64.00
13721;DHT22;6932;51.438;5.470;2023-03-17T05:16:10;15.20;64.00
13721;DHT22;6932;51.438;5.470;2023-03-17T05:18:37;15.10;63.90
13721;DHT22;6932;51.438;5.470;2023-03-17T05:21:04;15.10;63.90
13721;DHT22;6932;51.438;5.470;2023-03-17T05:23:31;15.10;64.00
13721;DHT22;6932;51.438;5.470;2023-03-17T05:25:56;15.20;64.00
13721;DHT22;6932;51.438;5.470;2023-03-17T05:28:22;15.20;64.00
13721;DHT22;6932;51.438;5.470;2023-03-17T05:30:49;15.20;64.10
13721;DHT22;6932;51.438;5.470;2023-03-17T05:33:15;15.20;64.10
13721;DHT22;6932;51.438;5.470;2023-03-17T05:35:42;15.20;64.10
13721;DHT22;6932;51.438;5.470;2023-03-17T05:38:10;15.20;64.10
13721;DHT22;6932;51.438;5.470;2023-03-17T05:40:37;15.20;64.20
13721;DHT22;6932;51.438;5.470;2023-03-17T05:43:04;15.20;64.20
13721;DHT22;6932;51.438;5.470;2023-03-17T05:45:30;15.20;64.20
13721;DHT22;6932;51.438;5.470;2023-03-17T05:47:57;15.20;64.20
13721;DHT22;6932;51.438;5.470;2023-03-17T05:50:24;15.20;64.20
13721;DHT22;6932;51.438;5.470;2023-03-17T05:52:51;15.20;64.20
13721;DHT22;6932;51.438;5.470;2023-03-17T05:55:18;15.20;64.20
13721;DHT22;6932;51.438;5.470;2023-03-17T05:57:45;15.20;64.30
13721;DHT22;6932;51.438;5.470;2023-03-17T06:00:12;15.20;64.30
13721;DHT22;6932;51.438;5.470;2023-03-17T06:02:41;15.20;64.30
13721;DHT22;6932;51.438;5.470;2023-03-17T06:05:07;15.20;64.40
13721;DHT22;6932;51.438;5.470;2023-03-17T06:07:34;15.20;64.40
13721;DHT22;6932;51.438;5.470;2023-03-17T06:10:01;15.20;64.40
13721;DHT22;6932;51.438;5.470;2023-03-17T06:12:28;15.20;64.50
13721;DHT22;6932;51.438;5.470;2023-03-17T06:14:53;15.20;64.50
13721;DHT22;6932;51.438;5.470;2023-03-17T06:20:41;15.20;64.70
13721;DHT22;6932;51.438;5.470;2023-03-17T06:23:07;15.20;64.60
13721;DHT22;6932;51.438;5.470;2023-03-17T06:25:33;15.20;64.70
13721;DHT22;6932;51.438;5.470;2023-03-17T06:28:00;15.20;64.90
13721;DHT22;6932;51.438;5.470;2023-03-17T06:30:28;15.20;65.00
13721;DHT22;6932;51.438;5.470;2023-03-17T06:32:54;15.20;65.10
13721;DHT22;6932;51.438;5.470;2023-03-17T06:35:20;15.20;65.10
13721;DHT22;6932;51.438;5.470;2023-03-17T06:37:47;15.20;65.20
13721;DHT22;6932;51.438;5.470;2023-03-17T06:40:13;15.20;65.30
13721;DHT22;6932;51.438;5.470;2023-03-17T06:42:40;15.20;65.30
13721;DHT22;6932;51.438;5.470;2023-03-17T06:45:07;15.20;65.30
13721;DHT22;6932;51.438;5.470;2023-03-17T06:47:34;15.20;65.40
13721;DHT22;6932;51.438;5.470;2023-03-17T06:50:02;15.20;65.40
13721;DHT22;6932;51.438;5.470;2023-03-17T06:52:29;15.20;65.40
13721;DHT22;6932;51.438;5.470;2023-03-17T06:54:55;15.20;65.40
13721;DHT22;6932;51.438;5.470;2023-03-17T06:57:21;15.20;65.50
13721;DHT22;6932;51.438;5.470;2023-03-17T06:59:46;15.20;66.20
13721;DHT22;6932;51.438;5.470;2023-03-17T07:02:12;15.30;65.60
13721;DHT22;6932;51.438;5.470;2023-03-17T07:04:38;15.30;65.50
13721;DHT22;6932;51.438;5.470;2023-03-17T07:07:05;15.30;65.50
13721;DHT22;6932;51.438;5.470;2023-03-17T07:09:53;15.30;65.40
13721;DHT22;6932;51.438;5.470;2023-03-17T07:12:19;15.30;65.50
13721;DHT22;6932;51.438;5.470;2023-03-17T07:14:46;15.40;65.50
13721;DHT22;6932;51.438;5.470;2023-03-17T07:17:13;15.40;65.40
13721;DHT22;6932;51.438;5.470;2023-03-17T07:19:40;15.40;65.40
13721;DHT22;6932;51.438;5.470;2023-03-17T07:22:08;15.50;65.40
13721;DHT22;6932;51.438;5.470;2023-03-17T07:24:35;15.50;65.30
13721;DHT22;6932;51.438;5.470;2023-03-17T07:27:01;15.50;65.40
13721;DHT22;6932;51.438;5.470;2023-03-17T07:29:27;15.60;65.70
13721;DHT22;6932;51.438;5.470;2023-03-17T07:31:53;15.70;65.70
13721;DHT22;6932;51.438;5.470;2023-03-17T07:37:59;15.70;65.50
13721;DHT22;6932;51.438;5.470;2023-03-17T07:40:27;15.90;65.40
13721;DHT22;6932;51.438;5.470;2023-03-17T07:42:54;15.90;65.30
13721;DHT22;6932;51.438;5.470;2023-03-17T07:45:19;15.90;65.80
13721;DHT22;6932;51.438;5.470;2023-03-17T07:47:45;16.00;65.30
13721;DHT22;6932;51.438;5.470;2023-03-17T07:50:11;16.00;65.20
13721;DHT22;6932;51.438;5.470;2023-03-17T07:52:38;16.10;65.30
13721;DHT22;6932;51.438;5.470;2023-03-17T07:55:04;16.10;65.20
13721;DHT22;6932;51.438;5.470;2023-03-17T07:57:33;16.10;65.10
13721;DHT22;6932;51.438;5.470;2023-03-17T07:59:58;16.20;65.10
13721;DHT22;6932;51.438;5.470;2023-03-17T08:02:24;16.20;65.00
13721;DHT22;6932;51.438;5.470;2023-03-17T08:04:50;16.30;65.10
13721;DHT22;6932;51.438;5.470;2023-03-17T08:07:16;16.30;64.90
13721;DHT22;6932;51.438;5.470;2023-03-17T08:09:42;16.40;65.00
13721;DHT22;6932;51.438;5.470;2023-03-17T08:12:08;16.40;64.90
13721;DHT22;6932;51.438;5.470;2023-03-17T08:14:34;16.40;64.80
13721;DHT22;6932;51.438;5.470;2023-03-17T08:17:00;16.50;64.90
13721;DHT22;6932;51.438;5.470;2023-03-17T08:23:07;16.60;64.90
13721;DHT22;6932;51.438;5.470;2023-03-17T08:25:33;16.60;64.80
13721;DHT22;6932;51.438;5.470;2023-03-17T08:27:59;16.80;65.00
13721;DHT22;6932;51.438;5.470;2023-03-17T08:30:25;16.70;64.90
13721;DHT22;6932;51.438;5.470;2023-03-17T08:32:51;16.90;64.80
13721;DHT22;6932;51.438;5.470;2023-03-17T08:35:19;16.90;64.80
13721;DHT22;6932;51.438;5.470;2023-03-17T08:37:45;17.00;64.90
13721;DHT22;6932;51.438;5.470;2023-03-17T08:40:14;17.10;64.80
13721;DHT22;6932;51.438;5.470;2023-03-17T08:42:45;17.10;64.70
13721;DHT22;6932;51.438;5.470;2023-03-17T08:45:13;17.20;64.70
13721;DHT22;6932;51.438;5.470;2023-03-17T08:47:41;17.30;64.60
13721;DHT22;6932;51.438;5.470;2023-03-17T08:50:10;17.30;64.60
13721;DHT22;6932;51.438;5.470;2023-03-17T08:52:40;17.40;64.50
13721;DHT22;6932;51.438;5.470;2023-03-17T08:55:06;17.50;64.50
13721;DHT22;6932;51.438;5.470;2023-03-17T08:57:34;17.50;65.10
13721;DHT22;6932;51.438;5.470;2023-03-17T09:00:01;17.60;64.30
13721;DHT22;6932;51.438;5.470;2023-03-17T09:02:26;17.60;64.30
13721;DHT22;6932;51.438;5.470;2023-03-17T09:04:53;17.70;64.30
13721;DHT22;6932;51.438;5.470;2023-03-17T09:07:18;17.80;64.40
13721;DHT22;6932;51.438;5.470;2023-03-17T09:09:44;17.90;64.40
13721;DHT22;6932;51.438;5.470;2023-03-17T09:12:10;17.90;64.30
13721;DHT22;6932;51.438;5.470;2023-03-17T09:14:36;18.00;64.40
13721;DHT22;6932;51.438;5.470;2023-03-17T09:17:04;18.10;64.20
13721;DHT22;6932;51.438;5.470;2023-03-17T09:19:30;18.20;64.20
13721;DHT22;6932;51.438;5.470;2023-03-17T09:21:56;18.20;64.10
13721;DHT22;6932;51.438;5.470;2023-03-17T09:24:22;18.30;64.00
13721;DHT22;6932;51.438;5.470;2023-03-17T09:30:29;18.50;64.10
13721;DHT22;6932;51.438;5.470;2023-03-17T09:32:56;18.60;64.00
13721;DHT22;6932;51.438;5.470;2023-03-17T09:35:23;18.70;64.10
13721;DHT22;6932;51.438;5.470;2023-03-17T09:37:50;18.70;64.00
13721;DHT22;6932;51.438;5.470;2023-03-17T09:40:20;18.70;63.80
13721;DHT22;6932;51.438;5.470;2023-03-17T09:42:55;18.80;63.70
13721;DHT22;6932;51.438;5.470;2023-03-17T09:45:39;18.80;63.80
13721;DHT22;6932;51.438;5.470;2023-03-17T09:51:06;18.80;64.30
13721;DHT22;6932;51.438;5.470;2023-03-17T09:53:56;18.80;64.60
13721;DHT22;6932;51.438;5.470;2023-03-17T09:56:26;18.80;64.40
13721;DHT22;6932;51.438;5.470;2023-03-17T09:59:37;18.90;64.50
13721;DHT22;6932;51.438;5.470;2023-03-17T10:02:30;19.00;64.60
13721;DHT22;6932;51.438;5.470;2023-03-17T10:05:00;19.10;64.50
13721;DHT22;6932;51.438;5.470;2023-03-17T10:16:26;19.80;64.00
13721;DHT22;6932;51.438;5.470;2023-03-17T10:22:07;20.10;63.40
13721;DHT22;6932;51.438;5.470;2023-03-17T10:28:28;20.40;63.10
13721;DHT22;6932;51.438;5.470;2023-03-17T10:31:17;20.60;62.60
13721;DHT22;6932;51.438;5.470;2023-03-17T10:33:55;20.60;62.60
13721;DHT22;6932;51.438;5.470;2023-03-17T10:36:37;20.70;62.30
13721;DHT22;6932;51.438;5.470;2023-03-17T10:39:08;20.80;62.10
13721;DHT22;6932;51.438;5.470;2023-03-17T10:41:39;20.80;61.90
13721;DHT22;6932;51.438;5.470;2023-03-17T10:44:28;20.90;62.00
13721;DHT22;6932;51.438;5.470;2023-03-17T10:47:05;21.00;62.00
13721;DHT22;6932;51.438;5.470;2023-03-17T10:49:43;21.00;61.70
13721;DHT22;6932;51.438;5.470;2023-03-17T10:52:19;21.10;61.80
13721;DHT22;6932;51.438;5.470;2023-03-17T10:54:48;21.10;61.60
13721;DHT22;6932;51.438;5.470;2023-03-17T10:57:17;21.20;61.50
13721;DHT22;6932;51.438;5.470;2023-03-17T10:59:50;21.30;61.40
13721;DHT22;6932;51.438;5.470;2023-03-17T11:05:19;21.40;61.20
13721;DHT22;6932;51.438;5.470;2023-03-17T11:07:47;21.50;61.20
13721;DHT22;6932;51.438;5.470;2023-03-17T11:10:20;21.60;60.90
13721;DHT22;6932;51.438;5.470;2023-03-17T11:12:54;21.60;60.90
13721;DHT22;6932;51.438;5.470;2023-03-17T11:15:32;21.60;60.90
13721;DHT22;6932;51.438;5.470;2023-03-17T11:18:02;21.60;60.90
13721;DHT22;6932;51.438;5.470;2023-03-17T11:20:56;21.70;61.00
13721;DHT22;6932;51.438;5.470;2023-03-17T11:26:54;21.80;61.10
13721;DHT22;6932;51.438;5.470;2023-03-17T11:29:43;21.90;61.10
13721;DHT22;6932;51.438;5.470;2023-03-17T11:32:31;22.00;60.90
13721;DHT22;6932;51.438;5.470;2023-03-17T11:41:34;22.40;60.50
13721;DHT22;6932;51.438;5.470;2023-03-17T11:47:33;22.60;59.90
13721;DHT22;6932;51.438;5.470;2023-03-17T11:53:34;22.70;60.00
13721;DHT22;6932;51.438;5.470;2023-03-17T11:56:34;22.80;59.90
13721;DHT22;6932;51.438;5.470;2023-03-17T12:05:47;22.90;59.50
13721;DHT22;6932;51.438;5.470;2023-03-17T12:08:53;22.90;59.70
13721;DHT22;6932;51.438;5.470;2023-03-17T12:11:29;22.90;60.00
13721;DHT22;6932;51.438;5.470;2023-03-17T12:14:05;23.00;59.40
13721;DHT22;6932;51.438;5.470;2023-03-17T12:17:01;23.00;59.60
13721;DHT22;6932;51.438;5.470;2023-03-17T12:20:02;23.00;59.50
13721;DHT22;6932;51.438;5.470;2023-03-17T12:28:13;23.10;59.50
13721;DHT22;6932;51.438;5.470;2023-03-17T12:30:52;23.10;59.60
13721;DHT22;6932;51.438;5.470;2023-03-17T12:33:32;23.10;59.40
13721;DHT22;6932;51.438;5.470;2023-03-17T12:36:06;23.10;59.60
13721;DHT22;6932;51.438;5.470;2023-03-17T12:38:43;23.10;59.70
13721;DHT22;6932;51.438;5.470;2023-03-17T12:53:56;23.00;59.90
13721;DHT22;6932;51.438;5.470;2023-03-17T12:56:32;23.00;59.90
13721;DHT22;6932;51.438;5.470;2023-03-17T12:59:05;23.00;59.60
13721;DHT22;6932;51.438;5.470;2023-03-17T13:01:43;23.00;59.50
13721;DHT22;6932;51.438;5.470;2023-03-17T13:04:22;23.00;59.90
13721;DHT22;6932;51.438;5.470;2023-03-17T13:25:50;23.00;60.30
13721;DHT22;6932;51.438;5.470;2023-03-17T13:28:41;23.00;60.00
13721;DHT22;6932;51.438;5.470;2023-03-17T13:43:38;23.10;60.00
13721;DHT22;6932;51.438;5.470;2023-03-17T13:52:07;23.10;59.90
13721;DHT22;6932;51.438;5.470;2023-03-17T13:55:00;23.10;60.00
13721;DHT22;6932;51.438;5.470;2023-03-17T14:00:44;23.10;60.00
13721;DHT22;6932;51.438;5.470;2023-03-17T14:03:45;23.10;59.90
13721;DHT22;6932;51.438;5.470;2023-03-17T14:06:13;23.20;60.10
13721;DHT22;6932;51.438;5.470;2023-03-17T14:09:07;23.20;60.00
13721;DHT22;6932;51.438;5.470;2023-03-17T14:18:35;23.20;59.90
13721;DHT22;6932;51.438;5.470;2023-03-17T14:21:06;23.20;59.90
13721;DHT22;6932;51.438;5.470;2023-03-17T14:24:33;23.10;60.00
13721;DHT22;6932;51.438;5.470;2023-03-17T14:26:49;23.10;60.10
13721;DHT22;6932;51.438;5.470;2023-03-17T14:29:20;23.10;60.00
13721;DHT22;6932;51.438;5.470;2023-03-17T14:32:05;23.10;60.20
13721;DHT22;6932;51.438;5.470;2023-03-17T14:34:47;23.10;60.00
13721;DHT22;6932;51.438;5.470;2023-03-17T14:37:19;23.10;60.20
13721;DHT22;6932;51.438;5.470;2023-03-17T14:39:49;23.10;60.20
13721;DHT22;6932;51.438;5.470;2023-03-17T14:42:26;23.10;60.10
13721;DHT22;6932;51.438;5.470;2023-03-17T14:47:38;23.10;60.00
13721;DHT22;6932;51.438;5.470;2023-03-17T14:50:32;23.10;60.10
13721;DHT22;6932;51.438;5.470;2023-03-17T14:52:59;23.10;60.20
13721;DHT22;6932;51.438;5.470;2023-03-17T14:55:36;23.10;60.30
13721;DHT22;6932;51.438;5.470;2023-03-17T14:58:09;23.00;60.20
13721;DHT22;6932;51.438;5.470;2023-03-17T15:00:47;23.10;60.30
13721;DHT22;6932;51.438;5.470;2023-03-17T15:03:21;23.00;60.30
13721;DHT22;6932;51.438;5.470;2023-03-17T15:05:50;23.00;60.60
13721;DHT22;6932;51.438;5.470;2023-03-17T15:10:58;23.10;60.80
13721;DHT22;6932;51.438;5.470;2023-03-17T15:13:28;23.00;60.70
13721;DHT22;6932;51.438;5.470;2023-03-17T15:16:14;23.10;60.70
13721;DHT22;6932;51.438;5.470;2023-03-17T15:18:41;23.10;61.10
13721;DHT22;6932;51.438;5.470;2023-03-17T15:21:27;23.10;61.00
13721;DHT22;6932;51.438;5.470;2023-03-17T15:24:03;23.00;61.00
13721;DHT22;6932;51.438;5.470;2023-03-17T15:30:12;23.00;61.20
13721;DHT22;6932;51.438;5.470;2023-03-17T15:32:39;23.00;61.20
13721;DHT22;6932;51.438;5.470;2023-03-17T15:35:06;23.00;61.20
13721;DHT22;6932;51.438;5.470;2023-03-17T15:37:35;23.00;61.40
13721;DHT22;6932;51.438;5.470;2023-03-17T15:40:02;23.00;61.20
13721;DHT22;6932;51.438;5.470;2023-03-17T15:46:09;22.90;61.10
13721;DHT22;6932;51.438;5.470;2023-03-17T15:52:26;23.00;61.00
13721;DHT22;6932;51.438;5.470;2023-03-17T15:58:39;23.00;61.10
13721;DHT22;6932;51.438;5.470;2023-03-17T16:01:05;23.00;61.10
13721;DHT22;6932;51.438;5.470;2023-03-17T16:03:33;23.00;61.10
13721;DHT22;6932;51.438;5.470;2023-03-17T16:06:00;23.00;61.40
13721;DHT22;6932;51.438;5.470;2023-03-17T16:08:28;23.00;61.40
13721;DHT22;6932;51.438;5.470;2023-03-17T16:10:54;23.00;61.30
13721;DHT22;6932;51.438;5.470;2023-03-17T16:13:20;23.00;61.10
13721;DHT22;6932;51.438;5.470;2023-03-17T16:19:27;22.90;60.30
13721;DHT22;6932;51.438;5.470;2023-03-17T16:21:54;23.00;59.90
13721;DHT22;6932;51.438;5.470;2023-03-17T16:24:24;22.90;59.60
13721;DHT22;6932;51.438;5.470;2023-03-17T16:26:51;22.90;59.40
13721;DHT22;6932;51.438;5.470;2023-03-17T16:29:19;22.90;59.40
13721;DHT22;6932;51.438;5.470;2023-03-17T16:31:49;22.90;59.70
13721;DHT22;6932;51.438;5.470;2023-03-17T16:34:20;22.80;59.60
13721;DHT22;6932;51.438;5.470;2023-03-17T16:36:48;22.90;59.40
13721;DHT22;6932;51.438;5.470;2023-03-17T16:39:20;22.80;58.90
13721;DHT22;6932;51.438;5.470;2023-03-17T16:41:48;22.80;58.60
13721;DHT22;6932;51.438;5.470;2023-03-17T16:44:15;22.80;58.50
13721;DHT22;6932;51.438;5.470;2023-03-17T16:46:43;22.70;58.20
13721;DHT22;6932;51.438;5.470;2023-03-17T16:49:17;22.60;58.00
13721;DHT22;6932;51.438;5.470;2023-03-17T16:51:44;22.60;57.90
13721;DHT22;6932;51.438;5.470;2023-03-17T16:54:10;22.60;57.80
13721;DHT22;6932;51.438;5.470;2023-03-17T16:56:40;22.60;57.80
13721;DHT22;6932;51.438;5.470;2023-03-17T16:59:17;22.50;57.80
13721;DHT22;6932;51.438;5.470;2023-03-17T17:01:44;22.50;57.90
13721;DHT22;6932;51.438;5.470;2023-03-17T17:04:10;22.50;58.00
13721;DHT22;6932;51.438;5.470;2023-03-17T17:06:36;22.40;57.80
13721;DHT22;6932;51.438;5.470;2023-03-17T17:09:02;22.40;58.00
13721;DHT22;6932;51.438;5.470;2023-03-17T17:15:19;22.30;57.60
13721;DHT22;6932;51.438;5.470;2023-03-17T17:18:01;22.30;57.30
13721;DHT22;6932;51.438;5.470;2023-03-17T17:20:33;22.20;57.20
13721;DHT22;6932;51.438;5.470;2023-03-17T17:23:05;22.20;56.90
13721;DHT22;6932;51.438;5.470;2023-03-17T17:25:35;22.20;57.00
13721;DHT22;6932;51.438;5.470;2023-03-17T17:28:01;22.10;57.00
13721;DHT22;6932;51.438;5.470;2023-03-17T17:30:29;22.10;57.10
13721;DHT22;6932;51.438;5.470;2023-03-17T17:32:57;22.00;57.10
13721;DHT22;6932;51.438;5.470;2023-03-17T17:42:46;22.00;57.40
13721;DHT22;6932;51.438;5.470;2023-03-17T17:45:13;21.90;57.40
13721;DHT22;6932;51.438;5.470;2023-03-17T17:47:40;21.90;57.60
13721;DHT22;6932;51.438;5.470;2023-03-17T17:50:08;21.80;57.70
13721;DHT22;6932;51.438;5.470;2023-03-17T17:52:36;21.80;57.90
13721;DHT22;6932;51.438;5.470;2023-03-17T17:55:03;21.80;58.00
13721;DHT22;6932;51.438;5.470;2023-03-17T17:57:29;21.70;58.00
13721;DHT22;6932;51.438;5.470;2023-03-17T18:03:45;21.70;58.20
13721;DHT22;6932;51.438;5.470;2023-03-17T18:06:11;21.60;58.10
13721;DHT22;6932;51.438;5.470;2023-03-17T18:08:38;21.60;58.30
13721;DHT22;6932;51.438;5.470;2023-03-17T18:11:04;21.60;58.40
13721;DHT22;6932;51.438;5.470;2023-03-17T18:13:30;21.50;58.50
13721;DHT22;6932;51.438;5.470;2023-03-17T18:15:58;21.50;58.50
13721;DHT22;6932;51.438;5.470;2023-03-17T18:18:25;21.50;58.70
13721;DHT22;6932;51.438;5.470;2023-03-17T18:20:51;21.40;58.70
13721;DHT22;6932;51.438;5.470;2023-03-17T18:27:00;21.30;58.80
13721;DHT22;6932;51.438;5.470;2023-03-17T18:29:28;21.40;59.00
13721;DHT22;6932;51.438;5.470;2023-03-17T18:31:54;21.30;59.00
13721;DHT22;6932;51.438;5.470;2023-03-17T18:34:23;21.30;59.20
13721;DHT22;6932;51.438;5.470;2023-03-17T18:36:54;21.30;59.30
13721;DHT22;6932;51.438;5.470;2023-03-17T18:39:23;21.30;59.40
13721;DHT22;6932;51.438;5.470;2023-03-17T18:41:50;21.30;59.50
13721;DHT22;6932;51.438;5.470;2023-03-17T18:44:16;21.20;59.50
13721;DHT22;6932;51.438;5.470;2023-03-17T18:46:44;21.20;59.50
13721;DHT22;6932;51.438;5.470;2023-03-17T18:49:09;21.20;59.50
13721;DHT22;6932;51.438;5.470;2023-03-17T18:51:35;21.10;59.50
13721;DHT22;6932;51.438;5.470;2023-03-17T18:54:01;21.10;59.60
13721;DHT22;6932;51.438;5.470;2023-03-17T18:56:29;21.10;60.10
13721;DHT22;6932;51.438;5.470;2023-03-17T18:58:55;21.10;59.60
13721;DHT22;6932;51.438;5.470;2023-03-17T19:01:22;21.10;59.60